sensor_id;sensor_type;location;lat;lon;timestamp;temperature;humidity
52073;DHT22;38074;51.232;6.826;2023-06-14T00:06:25;26.80;35.50
52073;DHT22;38074;51.232;6.826;2023-06-14T00:13:40;26.80;35.60
52073;DHT22;38074;51.232;6.826;2023-06-14T00:20:57;26.80;35.70
52073;DHT22;38074;51.232;6.826;2023-06-14T00:28:13;26.80;35.60
52073;DHT22;38074;51.232;6.826;2023-06-14T00:35:29;26.80;35.70
52073;DHT22;38074;51.232;6.826;2023-06-14T00:42:44;26.80;35.70
52073;DHT22;38074;51.232;6.826;2023-06-14T00:50:00;26.80;35.80
52073;DHT22;38074;51.232;6.826;2023-06-14T00:57:16;26.80;35.80
52073;DHT22;38074;51.232;6.826;2023-06-14T01:04:32;26.80;35.70
52073;DHT22;38074;51.232;6.826;2023-06-14T01:12:07;26.80;35.80
52073;DHT22;38074;51.232;6.826;2023-06-14T01:19:25;26.80;35.80
52073;DHT22;38074;51.232;6.826;2023-06-14T01:26:43;26.80;35.90
52073;DHT22;38074;51.232;6.826;2023-06-14T01:34:01;26.80;35.90
52073;DHT22;38074;51.232;6.826;2023-06-14T01:41:17;26.80;35.90
52073;DHT22;38074;51.232;6.826;2023-06-14T01:48:34;26.80;35.90
52073;DHT22;38074;51.232;6.826;2023-06-14T01:55:50;26.90;36.00
52073;DHT22;38074;51.232;6.826;2023-06-14T02:03:05;26.80;36.00
52073;DHT22;38074;51.232;6.826;2023-06-14T02:10:21;26.80;36.00
52073;DHT22;38074;51.232;6.826;2023-06-14T02:17:37;26.80;36.00
52073;DHT22;38074;51.232;6.826;2023-06-14T02:24:52;26.80;36.10
52073;DHT22;38074;51.232;6.826;2023-06-14T02:32:08;26.80;36.00
52073;DHT22;38074;51.232;6.826;2023-06-14T02:39:24;26.80;36.00
52073;DHT22;38074;51.232;6.826;2023-06-14T02:46:39;26.80;36.00
52073;DHT22;38074;51.232;6.826;2023-06-14T02:53:55;26.80;36.10
52073;DHT22;38074;51.232;6.826;2023-06-14T03:01:11;26.80;36.00
52073;DHT22;38074;51.232;6.826;2023-06-14T03:08:29;26.70;36.00
52073;DHT22;38074;51.232;6.826;2023-06-14T03:15:45;26.70;36.00
52073;DHT22;38074;51.232;6.826;2023-06-14T03:23:01;26.70;35.90
52073;DHT22;38074;51.232;6.826;2023-06-14T03:30:17;26.70;35.90
52073;DHT22;38074;51.232;6.826;2023-06-14T03:37:33;26.70;35.90
52073;DHT22;38074;51.232;6.826;2023-06-14T03:44:48;26.70;35.90
52073;DHT22;38074;51.232;6.826;2023-06-14T03:52:04;26.70;35.90
52073;DHT22;38074;51.232;6.826;2023-06-14T03:59:20;26.80;36.00
52073;DHT22;38074;51.232;6.826;2023-06-14T04:06:36;26.70;36.00
52073;DHT22;38074;51.232;6.826;2023-06-14T04:13:52;26.70;36.00
52073;DHT22;38074;51.232;6.826;2023-06-14T04:21:09;26.80;36.10
52073;DHT22;38074;51.232;6.826;2023-06-14T04:28:24;26.80;36.10
52073;DHT22;38074;51.232;6.826;2023-06-14T04:35:40;26.80;36.10
52073;DHT22;38074;51.232;6.826;2023-06-14T04:42:56;26.70;36.10
52073;DHT22;38074;51.232;6.826;2023-06-14T04:50:12;26.70;36.10
52073;DHT22;38074;51.232;6.826;2023-06-14T04:57:28;26.80;36.20
52073;DHT22;38074;51.232;6.826;2023-06-14T05:04:44;26.80;36.20
52073;DHT22;38074;51.232;6.826;2023-06-14T05:12:00;26.70;36.20
52073;DHT22;38074;51.232;6.826;2023-06-14T05:19:15;26.70;36.20
52073;DHT22;38074;51.232;6.826;2023-06-14T05:26:34;26.70;36.30
52073;DHT22;38074;51.232;6.826;2023-06-14T05:33:50;26.70;36.30
52073;DHT22;38074;51.232;6.826;2023-06-14T05:41:06;26.70;36.30
52073;DHT22;38074;51.232;6.826;2023-06-14T05:48:21;26.80;36.40
52073;DHT22;38074;51.232;6.826;2023-06-14T05:55:36;26.80;36.20
52073;DHT22;38074;51.232;6.826;2023-06-14T06:02:52;26.60;35.90
52073;DHT22;38074;51.232;6.826;2023-06-14T06:10:08;26.50;36.40
52073;DHT22;38074;51.232;6.826;2023-06-14T06:17:25;26.60;36.10
52073;DHT22;38074;51.232;6.826;2023-06-14T06:24:40;26.70;36.00
52073;DHT22;38074;51.232;6.826;2023-06-14T06:31:56;26.90;36.10
52073;DHT22;38074;51.232;6.826;2023-06-14T06:39:11;26.80;35.90
52073;DHT22;38074;51.232;6.826;2023-06-14T06:46:27;26.80;36.00
52073;DHT22;38074;51.232;6.826;2023-06-14T06:53:42;26.80;36.00
52073;DHT22;38074;51.232;6.826;2023-06-14T07:00:59;26.80;36.20
52073;DHT22;38074;51.232;6.826;2023-06-14T07:08:14;26.80;36.10
52073;DHT22;38074;51.232;6.826;2023-06-14T07:15:30;26.80;36.90
52073;DHT22;38074;51.232;6.826;2023-06-14T07:22:45;26.80;36.40
52073;DHT22;38074;51.232;6.826;2023-06-14T07:30:01;26.80;36.40
52073;DHT22;38074;51.232;6.826;2023-06-14T07:37:17;26.80;36.40
52073;DHT22;38074;51.232;6.826;2023-06-14T07:44:32;26.90;36.60
52073;DHT22;38074;51.232;6.826;2023-06-14T07:51:48;26.80;36.50
52073;DHT22;38074;51.232;6.826;2023-06-14T07:59:03;26.90;36.70
52073;DHT22;38074;51.232;6.826;2023-06-14T08:06:21;26.90;36.60
52073;DHT22;38074;51.232;6.826;2023-06-14T08:13:36;26.90;36.80
52073;DHT22;38074;51.232;6.826;2023-06-14T08:20:52;27.00;36.90
52073;DHT22;38074;51.232;6.826;2023-06-14T08:28:09;27.10;37.00
52073;DHT22;38074;51.232;6.826;2023-06-14T08:35:25;27.10;37.10
52073;DHT22;38074;51.232;6.826;2023-06-14T08:42:41;27.20;37.30
52073;DHT22;38074;51.232;6.826;2023-06-14T08:49:58;27.20;37.40
52073;DHT22;38074;51.232;6.826;2023-06-14T08:57:14;27.20;37.70
52073;DHT22;38074;51.232;6.826;2023-06-14T09:04:30;27.30;37.90
52073;DHT22;38074;51.232;6.826;2023-06-14T09:11:47;27.30;38.10
52073;DHT22;38074;51.232;6.826;2023-06-14T09:19:03;27.30;38.20
52073;DHT22;38074;51.232;6.826;2023-06-14T09:26:19;27.30;38.50
52073;DHT22;38074;51.232;6.826;2023-06-14T09:33:35;27.30;38.70
52073;DHT22;38074;51.232;6.826;2023-06-14T09:40:51;27.30;38.90
52073;DHT22;38074;51.232;6.826;2023-06-14T09:48:07;27.40;39.10
52073;DHT22;38074;51.232;6.826;2023-06-14T09:55:26;27.40;39.30
52073;DHT22;38074;51.232;6.826;2023-06-14T10:02:48;27.40;39.50
52073;DHT22;38074;51.232;6.826;2023-06-14T10:10:06;27.40;39.60
52073;DHT22;38074;51.232;6.826;2023-06-14T10:17:46;27.40;39.60
52073;DHT22;38074;51.232;6.826;2023-06-14T10:25:07;27.40;39.60
52073;DHT22;38074;51.232;6.826;2023-06-14T10:32:27;27.40;39.90
52073;DHT22;38074;51.232;6.826;2023-06-14T10:39:44;27.30;39.50
52073;DHT22;38074;51.232;6.826;2023-06-14T10:47:08;27.20;39.20
52073;DHT22;38074;51.232;6.826;2023-06-14T10:54:27;27.20;39.10
52073;DHT22;38074;51.232;6.826;2023-06-14T11:02:17;27.10;38.90
52073;DHT22;38074;51.232;6.826;2023-06-14T11:16:50;27.10;38.80
52073;DHT22;38074;51.232;6.826;2023-06-14T11:24:10;27.10;38.80
52073;DHT22;38074;51.232;6.826;2023-06-14T11:31:26;27.10;38.80
52073;DHT22;38074;51.232;6.826;2023-06-14T11:38:42;27.10;38.90
52073;DHT22;38074;51.232;6.826;2023-06-14T11:45:58;27.20;39.00
52073;DHT22;38074;51.232;6.826;2023-06-14T11:53:14;27.20;39.10
52073;DHT22;38074;51.232;6.826;2023-06-14T12:00:32;27.30;39.30
52073;DHT22;38074;51.232;6.826;2023-06-14T12:07:48;27.30;39.40
52073;DHT22;38074;51.232;6.826;2023-06-14T12:15:08;27.30;39.50
52073;DHT22;38074;51.232;6.826;2023-06-14T12:22:24;27.30;39.60
52073;DHT22;38074;51.232;6.826;2023-06-14T12:29:39;27.30;39.80
52073;DHT22;38074;51.232;6.826;2023-06-14T12:36:55;27.30;39.90
52073;DHT22;38074;51.232;6.826;2023-06-14T12:44:11;27.40;40.10
52073;DHT22;38074;51.232;6.826;2023-06-14T12:51:27;27.40;40.20
52073;DHT22;38074;51.232;6.826;2023-06-14T12:58:43;27.40;40.40
52073;DHT22;38074;51.232;6.826;2023-06-14T13:05:59;27.40;40.50
52073;DHT22;38074;51.232;6.826;2023-06-14T13:13:14;27.40;40.60
52073;DHT22;38074;51.232;6.826;2023-06-14T13:20:30;27.40;40.80
52073;DHT22;38074;51.232;6.826;2023-06-14T13:27:46;27.50;41.00
52073;DHT22;38074;51.232;6.826;2023-06-14T13:35:01;27.40;40.70
52073;DHT22;38074;51.232;6.826;2023-06-14T13:42:17;27.30;40.60
52073;DHT22;38074;51.232;6.826;2023-06-14T13:49:33;27.20;40.40
52073;DHT22;38074;51.232;6.826;2023-06-14T13:56:50;27.20;40.30
52073;DHT22;38074;51.232;6.826;2023-06-14T14:04:06;27.20;40.20
52073;DHT22;38074;51.232;6.826;2023-06-14T14:11:21;27.20;40.10
52073;DHT22;38074;51.232;6.826;2023-06-14T14:18:38;27.20;40.10
52073;DHT22;38074;51.232;6.826;2023-06-14T14:25:54;27.20;40.10
52073;DHT22;38074;51.232;6.826;2023-06-14T14:33:09;27.20;40.20
52073;DHT22;38074;51.232;6.826;2023-06-14T14:40:30;27.30;40.30
52073;DHT22;38074;51.232;6.826;2023-06-14T14:47:46;27.30;40.50
52073;DHT22;38074;51.232;6.826;2023-06-14T14:55:02;27.30;40.60
52073;DHT22;38074;51.232;6.826;2023-06-14T15:02:17;27.30;40.70
52073;DHT22;38074;51.232;6.826;2023-06-14T15:09:33;27.30;40.80
52073;DHT22;38074;51.232;6.826;2023-06-14T15:16:49;27.30;40.80
52073;DHT22;38074;51.232;6.826;2023-06-14T15:24:05;27.30;40.90
52073;DHT22;38074;51.232;6.826;2023-06-14T15:31:21;27.30;40.80
52073;DHT22;38074;51.232;6.826;2023-06-14T15:38:39;27.40;41.10
52073;DHT22;38074;51.232;6.826;2023-06-14T15:45:54;27.40;41.30
52073;DHT22;38074;51.232;6.826;2023-06-14T15:53:10;27.50;41.50
52073;DHT22;38074;51.232;6.826;2023-06-14T16:00:25;27.50;41.70
52073;DHT22;38074;51.232;6.826;2023-06-14T16:07:41;27.50;41.90
52073;DHT22;38074;51.232;6.826;2023-06-14T16:14:56;27.60;42.00
52073;DHT22;38074;51.232;6.826;2023-06-14T16:22:12;27.60;42.20
52073;DHT22;38074;51.232;6.826;2023-06-14T16:29:28;27.60;42.30
52073;DHT22;38074;51.232;6.826;2023-06-14T16:36:44;27.60;42.40
52073;DHT22;38074;51.232;6.826;2023-06-14T16:44:00;27.60;42.40
52073;DHT22;38074;51.232;6.826;2023-06-14T16:51:18;27.60;42.50
52073;DHT22;38074;51.232;6.826;2023-06-14T16:58:34;27.60;42.60
52073;DHT22;38074;51.232;6.826;2023-06-14T17:05:59;27.60;42.60
52073;DHT22;38074;51.232;6.826;2023-06-14T17:13:15;27.60;42.60
52073;DHT22;38074;51.232;6.826;2023-06-14T17:20:30;27.60;42.60
52073;DHT22;38074;51.232;6.826;2023-06-14T17:27:46;27.60;42.70
52073;DHT22;38074;51.232;6.826;2023-06-14T17:35:01;27.60;42.60
52073;DHT22;38074;51.232;6.826;2023-06-14T17:42:18;27.50;42.10
52073;DHT22;38074;51.232;6.826;2023-06-14T17:49:34;27.30;41.30
52073;DHT22;38074;51.232;6.826;2023-06-14T17:56:49;27.20;40.60
52073;DHT22;38074;51.232;6.826;2023-06-14T18:04:05;27.10;39.70
52073;DHT22;38074;51.232;6.826;2023-06-14T18:11:20;26.80;37.50
52073;DHT22;38074;51.232;6.826;2023-06-14T18:18:37;26.20;37.10
52073;DHT22;38074;51.232;6.826;2023-06-14T18:25:52;26.10;37.50
52073;DHT22;38074;51.232;6.826;2023-06-14T18:33:08;25.80;36.40
52073;DHT22;38074;51.232;6.826;2023-06-14T18:40:24;25.80;37.10
52073;DHT22;38074;51.232;6.826;2023-06-14T18:47:40;25.80;37.50
52073;DHT22;38074;51.232;6.826;2023-06-14T18:54:55;26.20;37.90
52073;DHT22;38074;51.232;6.826;2023-06-14T19:02:11;26.60;37.90
52073;DHT22;38074;51.232;6.826;2023-06-14T19:09:26;26.40;37.00
52073;DHT22;38074;51.232;6.826;2023-06-14T19:16:42;26.40;37.40
52073;DHT22;38074;51.232;6.826;2023-06-14T19:23:58;26.50;37.60
52073;DHT22;38074;51.232;6.826;2023-06-14T19:31:14;26.90;38.10
52073;DHT22;38074;51.232;6.826;2023-06-14T19:38:29;27.00;37.80
52073;DHT22;38074;51.232;6.826;2023-06-14T19:45:47;27.10;37.70
52073;DHT22;38074;51.232;6.826;2023-06-14T19:53:03;27.20;37.60
52073;DHT22;38074;51.232;6.826;2023-06-14T20:00:18;27.00;37.00
52073;DHT22;38074;51.232;6.826;2023-06-14T20:07:34;26.70;37.30
52073;DHT22;38074;51.232;6.826;2023-06-14T20:14:50;26.50;37.30
52073;DHT22;38074;51.232;6.826;2023-06-14T20:22:05;26.20;37.40
52073;DHT22;38074;51.232;6.826;2023-06-14T20:29:21;26.00;37.50
52073;DHT22;38074;51.232;6.826;2023-06-14T20:36:36;26.00;37.80
52073;DHT22;38074;51.232;6.826;2023-06-14T20:43:52;25.90;37.80
52073;DHT22;38074;51.232;6.826;2023-06-14T20:51:12;25.90;38.00
52073;DHT22;38074;51.232;6.826;2023-06-14T20:58:28;26.00;37.90
52073;DHT22;38074;51.232;6.826;2023-06-14T21:05:43;26.00;38.10
52073;DHT22;38074;51.232;6.826;2023-06-14T21:13:00;26.00;38.10
52073;DHT22;38074;51.232;6.826;2023-06-14T21:20:16;26.10;38.60
52073;DHT22;38074;51.232;6.826;2023-06-14T21:27:31;26.20;38.40
52073;DHT22;38074;51.232;6.826;2023-06-14T21:34:47;26.30;38.60
52073;DHT22;38074;51.232;6.826;2023-06-14T21:42:03;26.30;38.20
52073;DHT22;38074;51.232;6.826;2023-06-14T21:49:18;26.20;38.20
52073;DHT22;38074;51.232;6.826;2023-06-14T21:56:34;25.90;38.30
52073;DHT22;38074;51.232;6.826;2023-06-14T22:03:49;25.90;38.70
52073;DHT22;38074;51.232;6.826;2023-06-14T22:11:05;25.90;38.60
52073;DHT22;38074;51.232;6.826;2023-06-14T22:18:23;25.80;38.50
52073;DHT22;38074;51.232;6.826;2023-06-14T22:25:38;25.80;39.10
52073;DHT22;38074;51.232;6.826;2023-06-14T22:32:55;25.80;38.70
52073;DHT22;38074;51.232;6.826;2023-06-14T22:40:11;25.70;39.10
52073;DHT22;38074;51.232;6.826;2023-06-14T22:47:26;25.80;39.10
52073;DHT22;38074;51.232;6.826;2023-06-14T22:54:42;25.90;39.10
52073;DHT22;38074;51.232;6.826;2023-06-14T23:01:59;26.00;39.00
52073;DHT22;38074;51.232;6.826;2023-06-14T23:09:15;26.00;39.00
52073;DHT22;38074;51.232;6.826;2023-06-14T23:16:30;26.00;39.30
52073;DHT22;38074;51.232;6.826;2023-06-14T23:23:47;26.10;39.20
52073;DHT22;38074;51.232;6.826;2023-06-14T23:31:05;26.20;39.00
52073;DHT22;38074;51.232;6.826;2023-06-14T23:38:24;26.20;38.70
52073;DHT22;38074;51.232;6.826;2023-06-14T23:45:40;26.20;39.30
52073;DHT22;38074;51.232;6.826;2023-06-14T23:52:55;26.30;39.30
